Portada
METAR-TAF:

METAR-TAF

Aeropuertos :

Stornoway, Escocia

latitud: 58-13N, longitud: 006-19W, altitud: 9 m

Observación

El informe se hizo hace 30 minutos, a las 13:20 UTC
Viento 14 kt del noreste
Temperatura 13°C
Humedad 82%
Presión 1013 hPa
Visibilidad 10 km o más
Cielo nuboso a una altura de 1300 ft

METAR: EGPO 141320Z 04014KT 9999 BKN013 13/10 Q1013

Hora: 14:50 (13:50 UTC)

Pronóstico

El informe se hizo hace 2 horas y 53 minutos, a las 10:57 UTC
Pronóstico válido del 14 a las 12 UTC al 14 a las 21 UTC
Viento 15 kt del norte-noreste
Visibilidad 10 km o más
Cielo nuboso a una altura de 1200 ft
Temporalmente
del 14 a las 12 UTC al 14 a las 21 UTC
Cielo nuboso a una altura de 700 ft

TAF: EGPO 141057Z 1412/1421 03015KT 9999 BKN012 TEMPO 1412/1421 BKN007

Observaciones y pronósticos meteorológicos de más de 4000 aeropuertos (mensajes METAR y TAF).

Los puntos amarillos y rojos representan las estaciones disponibles.

Ponga el ratón en el punto deseado para ver el nombre de la estación.

Haga clic para ver las observaciones y los pronósticos meteorológicos.

Para cambiar el mapa : haga clic en los botones verdes con una cruz de color negro para hacer un zoom, en el botón verde con un guión para alejar o en las flechas verdes para mapas adyacentes.


METAR-TAF: